Language: 


Des rapports , des résumés tant et plus, au choix de chacun....


Données statistiques de la station
Quotidien Rapport Mars 4, 2017 Unités:  Métrique    Anglais   les deux
« Précédent Jour
Suivant Jour »
Quotidien Hebdomadaire Mensuel Annuel Actuel
  Haut: Bas: Moyen:
Température: 10.9 °C 6.8 °C 9 °C
Pt de rosée: 9.5 °C 6.2 °C 8.2 °C
Humidité: 98 % 82 % 95 %
Vitesse du vent: 24.5 km/h 0.0 km/h 8 km/h
Rafales: 28.5 km/h - -
Vent:- - SW
Pression: 994.1 hPa 989.1 hPa -
Précipitation: 5.8 mm    
Historical Graphs
 
 
Données statistiques pour Mars 4, 2017
Heure Température Point de rosée Pression Vent Vitesse du vent Refales Humidité Pluie (taux horaire)
00:03 10.4 °C 7.8 °C 993.1 hPa South 4.7 km/h 14.0 km/h 84 % 0.0 mm
00:08 10.4 °C 7.8 °C 993.1 hPa South 5.5 km/h 14.0 km/h 84 % 0.0 mm
00:13 10.3 °C 7.7 °C 993.1 hPa South 7.9 km/h 13.7 km/h 84 % 0.0 mm
00:18 10.2 °C 7.6 °C 993.1 hPa SSW 6.9 km/h 10.5 km/h 84 % 0.0 mm
00:23 10.2 °C 7.6 °C 993.1 hPa South 9.7 km/h 11.6 km/h 84 % 0.0 mm
00:28 10.3 °C 7.9 °C 993.1 hPa South 11.9 km/h 15.8 km/h 85 % 0.0 mm
00:33 10.5 °C 8.1 °C 993.1 hPa SSW 11.6 km/h 15.8 km/h 85 % 0.0 mm
00:38 10.5 °C 8.1 °C 993.1 hPa South 9.0 km/h 15.4 km/h 85 % 0.0 mm
00:43 10.5 °C 8.1 °C 993.1 hPa SSW 10.5 km/h 13.7 km/h 85 % 0.0 mm
00:48 10.6 °C 8.0 °C 993.1 hPa South 13.0 km/h 13.7 km/h 84 % 0.0 mm
00:53 10.7 °C 8.1 °C 993.1 hPa South 10.1 km/h 15.8 km/h 84 % 0.0 mm
00:58 10.7 °C 8.1 °C 993.1 hPa SSW 11.9 km/h 16.6 km/h 84 % 0.0 mm
01:03 10.7 °C 8.1 °C 993.1 hPa SSW 7.9 km/h 16.6 km/h 84 % 0.0 mm
01:08 10.6 °C 8.0 °C 993.1 hPa South 12.2 km/h 14.0 km/h 84 % 0.0 mm
01:13 10.6 °C 8.0 °C 993.1 hPa South 9.3 km/h 13.7 km/h 84 % 0.0 mm
01:18 10.6 °C 8.0 °C 993.1 hPa South 10.5 km/h 14.3 km/h 84 % 0.0 mm
01:23 10.6 °C 8.0 °C 992.1 hPa SSW 12.6 km/h 14.3 km/h 84 % 0.0 mm
01:28 10.7 °C 8.1 °C 992.1 hPa SSW 8.7 km/h 17.2 km/h 84 % 0.0 mm
01:33 10.8 °C 8.0 °C 992.1 hPa South 6.9 km/h 17.2 km/h 83 % 0.0 mm
01:38 10.9 °C 8.1 °C 993.1 hPa WSW 10.1 km/h 17.2 km/h 83 % 0.0 mm
01:43 10.9 °C 8.1 °C 993.1 hPa SSW 15.4 km/h 15.4 km/h 83 % 0.0 mm
01:48 10.9 °C 7.9 °C 993.1 hPa West 19.8 km/h 23.3 km/h 82 % 0.0 mm
01:53 10.7 °C 7.9 °C 993.1 hPa West 16.6 km/h 23.3 km/h 83 % 0.0 mm
01:58 10.5 °C 7.7 °C 993.1 hPa WSW 7.9 km/h 19.8 km/h 83 % 0.0 mm
02:03 10.3 °C 7.6 °C 993.1 hPa WSW 6.1 km/h 16.3 km/h 83 % 0.0 mm
02:08 10.2 °C 7.6 °C 993.1 hPa WSW 5.8 km/h 9.3 km/h 84 % 0.0 mm
02:13 10.0 °C 7.4 °C 993.1 hPa Calm   9.3 km/h 84 % 0.0 mm
02:18 9.8 °C 7.2 °C 993.1 hPa Calm   5.5 km/h 84 % 0.0 mm
02:23 9.8 °C 7.4 °C 993.1 hPa Calm   5.5 km/h 85 % 0.0 mm
02:28 9.8 °C 7.4 °C 993.1 hPa South 5.5 km/h 7.2 km/h 85 % 0.0 mm
02:33 9.8 °C 7.4 °C 993.1 hPa Calm   9.3 km/h 85 % 0.0 mm
02:38 9.8 °C 7.6 °C 992.1 hPa SSE 2.6 km/h 9.3 km/h 86 % 0.0 mm
02:43 9.8 °C 7.6 °C 992.1 hPa Calm   7.2 km/h 86 % 0.0 mm
02:48 9.7 °C 7.4 °C 992.1 hPa SSE 5.0 km/h 6.9 km/h 86 % 0.0 mm
02:53 9.7 °C 7.4 °C 991.1 hPa SE 4.7 km/h 7.9 km/h 86 % 0.0 mm
02:58 9.7 °C 7.7 °C 991.1 hPa SE 6.4 km/h 7.9 km/h 87 % 0.0 mm
03:03 9.8 °C 7.7 °C 991.1 hPa SSE 5.8 km/h 9.7 km/h 87 % 0.0 mm
03:08 9.9 °C 7.8 °C 990.1 hPa South 6.4 km/h 9.0 km/h 87 % 0.0 mm
03:13 10.2 °C 8.3 °C 990.1 hPa SSE 9.0 km/h 12.2 km/h 88 % 0.0 mm
03:15 10.2 °C 8.4 °C 990.1 hPa South 8.7 km/h 13.7 km/h 89 % 0.0 mm
03:20 10.3 °C 8.6 °C 990.1 hPa Calm   13.7 km/h 89 % 0.0 mm
03:25 10.4 °C 8.7 °C 991.1 hPa Calm   15.4 km/h 89 % 0.0 mm
03:30 10.4 °C 8.7 °C 991.1 hPa SSE 8.7 km/h 15.4 km/h 89 % 0.0 mm
03:35 10.4 °C 8.7 °C 991.1 hPa SSE 9.7 km/h 15.8 km/h 89 % 0.0 mm
03:40 10.4 °C 8.8 °C 990.1 hPa South 9.7 km/h 15.8 km/h 90 % 0.0 mm
03:45 10.4 °C 8.8 °C 990.1 hPa SSW 17.7 km/h 17.7 km/h 90 % 0.0 mm
03:50 10.5 °C 9.2 °C 990.1 hPa SSE 13.0 km/h 20.9 km/h 92 % 0.0 mm
03:55 10.5 °C 9.2 °C 991.1 hPa SSW 21.6 km/h 24.8 km/h 92 % 0.0 mm
04:00 10.5 °C 9.4 °C 991.1 hPa South 17.2 km/h 24.8 km/h 93 % 0.0 mm
04:05 10.5 °C 9.4 °C 991.1 hPa SSE 24.5 km/h 24.5 km/h 93 % 0.0 mm
04:10 10.4 °C 9.3 °C 991.1 hPa SSE 15.8 km/h 24.5 km/h 93 % 0.0 mm
04:15 10.4 °C 9.3 °C 991.1 hPa South 24.5 km/h 24.5 km/h 93 % 0.0 mm
04:20 10.4 °C 9.4 °C 991.1 hPa SSE 15.8 km/h 24.8 km/h 94 % 0.0 mm
04:25 10.3 °C 9.4 °C 991.1 hPa SW 16.6 km/h 24.8 km/h 94 % 0.0 mm
04:30 10.3 °C 9.5 °C 991.1 hPa SSW 14.3 km/h 21.2 km/h 95 % 0.0 mm
04:35 10.2 °C 9.4 °C 991.1 hPa SSE 12.2 km/h 21.2 km/h 95 % 0.3 mm
04:40 10.2 °C 9.4 °C 991.1 hPa SSE 16.3 km/h 23.8 km/h 95 % 0.3 mm
04:45 10.1 °C 9.5 °C 991.1 hPa SSW 20.6 km/h 23.8 km/h 96 % 0.3 mm
04:50 10.0 °C 9.4 °C 991.1 hPa South 16.3 km/h 23.0 km/h 96 % 0.8 mm
04:55 10.0 °C 9.4 °C 991.1 hPa South 11.9 km/h 20.6 km/h 96 % 0.8 mm
05:00 9.9 °C 9.3 °C 991.1 hPa SSE 9.3 km/h 20.1 km/h 96 % 0.8 mm
05:05 9.9 °C 9.3 °C 991.1 hPa South 12.2 km/h 20.6 km/h 96 % 0.8 mm
05:10 9.9 °C 9.3 °C 991.1 hPa South 10.5 km/h 20.6 km/h 96 % 1.0 mm
05:16 9.9 °C 9.4 °C 991.1 hPa SSE 17.7 km/h 24.5 km/h 97 % 1.0 mm
05:21 9.9 °C 9.4 °C 991.1 hPa SSE 9.7 km/h 24.5 km/h 97 % 1.0 mm
05:26 9.9 °C 9.4 °C 991.1 hPa SSE 17.7 km/h 25.6 km/h 97 % 1.0 mm
05:31 9.9 °C 9.4 °C 991.1 hPa SSE 14.0 km/h 25.6 km/h 97 % 1.3 mm
05:36 9.9 °C 9.4 °C 991.1 hPa South 9.0 km/h 21.2 km/h 97 % 1.0 mm
05:41 9.9 °C 9.4 °C 991.1 hPa SSW 11.9 km/h 23.3 km/h 97 % 1.0 mm
05:46 9.9 °C 9.4 °C 991.1 hPa SSW 10.1 km/h 23.3 km/h 97 % 1.0 mm
05:51 9.8 °C 9.3 °C 991.1 hPa SSW 14.3 km/h 20.1 km/h 97 % 0.5 mm
05:56 9.8 °C 9.3 °C 990.1 hPa South 10.5 km/h 19.8 km/h 97 % 0.5 mm
06:01 9.8 °C 9.3 °C 990.1 hPa SSE 9.3 km/h 18.0 km/h 97 % 0.5 mm
06:06 9.8 °C 9.3 °C 990.1 hPa SSE 13.0 km/h 22.4 km/h 97 % 0.8 mm
06:11 9.8 °C 9.3 °C 990.1 hPa South 13.0 km/h 28.5 km/h 97 % 0.5 mm
06:16 9.8 °C 9.3 °C 990.1 hPa South 12.6 km/h 28.5 km/h 97 % 0.5 mm
06:21 9.7 °C 9.4 °C 990.1 hPa SSW 10.5 km/h 19.1 km/h 98 % 0.5 mm
06:26 9.7 °C 9.4 °C 990.1 hPa SSW 2.1 km/h 19.1 km/h 98 % 0.5 mm
06:31 9.7 °C 9.2 °C 990.1 hPa SSE 13.7 km/h 19.8 km/h 97 % 0.3 mm
06:36 9.7 °C 9.4 °C 990.1 hPa South 16.6 km/h 20.9 km/h 98 % 0.3 mm
06:41 9.7 °C 9.4 °C 990.1 hPa SSW 9.7 km/h 20.9 km/h 98 % 0.3 mm
06:46 9.7 °C 9.4 °C 990.1 hPa SSW 11.9 km/h 20.9 km/h 98 % 0.3 mm
06:51 9.7 °C 9.4 °C 990.1 hPa SSE 16.6 km/h 21.2 km/h 98 % 0.5 mm
06:56 9.7 °C 9.4 °C 990.1 hPa WSW 10.1 km/h 21.2 km/h 98 % 0.5 mm
07:01 9.7 °C 9.4 °C 990.1 hPa South 14.0 km/h 16.6 km/h 98 % 0.5 mm
07:06 9.6 °C 9.3 °C 990.1 hPa SE 10.5 km/h 18.3 km/h 98 % 0.3 mm
07:11 9.6 °C 9.3 °C 989.1 hPa South 5.8 km/h 20.6 km/h 98 % 0.5 mm
07:16 9.6 °C 9.3 °C 989.1 hPa South 11.9 km/h 20.6 km/h 98 % 0.5 mm
07:21 9.7 °C 9.4 °C 989.1 hPa SSE 15.4 km/h 20.1 km/h 98 % 0.5 mm
07:26 9.7 °C 9.4 °C 989.1 hPa SSW 9.3 km/h 20.1 km/h 98 % 0.5 mm
07:31 9.6 °C 9.3 °C 989.1 hPa South 10.1 km/h 20.1 km/h 98 % 0.5 mm
07:36 9.6 °C 9.3 °C 989.1 hPa SSW 9.7 km/h 20.9 km/h 98 % 0.5 mm
07:41 9.6 °C 9.3 °C 989.1 hPa SSE 10.1 km/h 21.2 km/h 98 % 0.5 mm
07:46 9.6 °C 9.3 °C 989.1 hPa SE 16.9 km/h 26.2 km/h 98 % 0.5 mm
07:51 9.6 °C 9.3 °C 989.1 hPa South 9.0 km/h 27.4 km/h 98 % 0.3 mm
07:56 9.6 °C 9.3 °C 989.1 hPa South 14.0 km/h 27.4 km/h 98 % 0.3 mm
08:01 9.6 °C 9.3 °C 989.1 hPa South 12.2 km/h 27.0 km/h 98 % 0.3 mm
08:06 9.6 °C 9.3 °C 989.1 hPa SSE 9.3 km/h 20.9 km/h 98 % 0.3 mm
08:11 9.6 °C 9.3 °C 989.1 hPa SSE 16.6 km/h 20.9 km/h 98 % 0.0 mm
08:16 9.6 °C 9.3 °C 989.1 hPa SSW 7.6 km/h 18.0 km/h 98 % 0.0 mm
08:21 9.6 °C 9.3 °C 989.1 hPa South 14.0 km/h 16.9 km/h 98 % 0.0 mm
08:26 9.6 °C 9.3 °C 989.1 hPa SSE 13.0 km/h 17.2 km/h 98 % 0.0 mm
08:31 9.6 °C 9.3 °C 989.1 hPa South 13.0 km/h 19.8 km/h 98 % 0.0 mm
08:36 9.6 °C 9.3 °C 989.1 hPa South 10.1 km/h 19.8 km/h 98 % 0.0 mm
08:41 9.6 °C 9.3 °C 989.1 hPa SSW 19.8 km/h 24.5 km/h 98 % 0.0 mm
08:46 9.6 °C 9.3 °C 989.1 hPa SSW 12.6 km/h 24.5 km/h 98 % 0.0 mm
08:51 9.6 °C 9.3 °C 989.1 hPa South 17.2 km/h 23.8 km/h 98 % 0.0 mm
08:56 9.6 °C 9.2 °C 989.1 hPa South 14.0 km/h 23.8 km/h 97 % 0.3 mm
09:02 9.6 °C 9.2 °C 989.1 hPa SW 10.1 km/h 25.6 km/h 97 % 0.3 mm
09:07 9.7 °C 9.2 °C 989.1 hPa South 9.7 km/h 25.6 km/h 97 % 0.3 mm
09:12 9.6 °C 9.2 °C 989.1 hPa SSW 9.0 km/h 20.6 km/h 97 % 0.3 mm
09:17 9.6 °C 9.2 °C 989.1 hPa SSW 8.7 km/h 20.6 km/h 97 % 0.3 mm
09:22 9.6 °C 9.2 °C 989.1 hPa SSW 9.3 km/h 20.6 km/h 97 % 0.3 mm
09:27 9.6 °C 9.2 °C 990.1 hPa SSW 7.9 km/h 16.3 km/h 97 % 0.3 mm
09:32 9.5 °C 9.1 °C 990.1 hPa WSW 10.1 km/h 21.2 km/h 97 % 0.3 mm
09:37 9.5 °C 9.1 °C 990.1 hPa WSW 11.6 km/h 21.2 km/h 97 % 0.3 mm
09:42 9.4 °C 8.9 °C 991.1 hPa WSW 16.6 km/h 17.2 km/h 97 % 0.3 mm
09:47 9.3 °C 8.8 °C 991.1 hPa WSW 10.5 km/h 17.2 km/h 97 % 0.3 mm
09:52 9.3 °C 8.8 °C 991.1 hPa WSW 11.9 km/h 16.9 km/h 97 % 0.0 mm
09:57 9.2 °C 8.9 °C 990.1 hPa WSW 9.7 km/h 16.9 km/h 98 % 0.0 mm
10:02 9.2 °C 8.9 °C 990.1 hPa WSW 7.9 km/h 14.0 km/h 98 % 0.0 mm
10:07 9.2 °C 8.9 °C 990.1 hPa WSW 10.1 km/h 11.9 km/h 98 % 0.0 mm
10:12 9.2 °C 8.9 °C 991.1 hPa West 10.1 km/h 11.9 km/h 98 % 0.0 mm
10:17 9.2 °C 8.9 °C 991.1 hPa WSW 5.8 km/h 12.2 km/h 98 % 0.0 mm
10:22 9.2 °C 8.9 °C 991.1 hPa WSW 9.7 km/h 12.2 km/h 98 % 0.0 mm
10:27 9.3 °C 9.0 °C 990.1 hPa SW 6.1 km/h 10.1 km/h 98 % 0.0 mm
10:32 9.3 °C 9.0 °C 990.1 hPa WSW 7.9 km/h 10.1 km/h 98 % 0.0 mm
10:37 9.3 °C 9.0 °C 990.1 hPa WSW 6.9 km/h 10.1 km/h 98 % 0.0 mm
10:42 9.3 °C 9.0 °C 990.1 hPa SW 5.8 km/h 7.9 km/h 98 % 0.0 mm
10:47 9.4 °C 9.1 °C 990.1 hPa SW 7.9 km/h 7.9 km/h 98 % 0.0 mm
10:52 9.4 °C 9.1 °C 990.1 hPa SW 6.4 km/h 9.3 km/h 98 % 0.0 mm
10:57 9.4 °C 9.1 °C 990.1 hPa Calm   9.3 km/h 98 % 0.0 mm
11:02 9.4 °C 9.1 °C 990.1 hPa WSW 4.0 km/h 6.4 km/h 98 % 0.0 mm
11:07 9.4 °C 9.1 °C 990.1 hPa WSW 6.4 km/h 9.0 km/h 98 % 0.0 mm
11:12 9.3 °C 9.0 °C 990.1 hPa WSW 5.0 km/h 9.0 km/h 98 % 0.0 mm
11:17 9.3 °C 9.0 °C 990.1 hPa SW 6.4 km/h 7.6 km/h 98 % 0.0 mm
11:22 9.3 °C 9.0 °C 991.1 hPa SSW 4.7 km/h 7.6 km/h 98 % 0.3 mm
11:27 9.3 °C 9.0 °C 991.1 hPa SW 6.9 km/h 9.7 km/h 98 % 0.3 mm
11:32 9.3 °C 9.0 °C 991.1 hPa SW 5.8 km/h 9.7 km/h 98 % 0.3 mm
11:37 9.3 °C 9.0 °C 990.1 hPa SW 3.5 km/h 8.7 km/h 98 % 0.3 mm
11:42 9.4 °C 9.1 °C 990.1 hPa Calm   6.9 km/h 98 % 0.3 mm
11:47 9.4 °C 9.1 °C 990.1 hPa Calm   5.8 km/h 98 % 0.3 mm
11:52 9.5 °C 9.2 °C 990.1 hPa Calm   5.8 km/h 98 % 0.8 mm
11:57 9.5 °C 9.2 °C 990.1 hPa Calm   5.5 km/h 98 % 0.8 mm
12:02 9.6 °C 9.3 °C 990.1 hPa West 4.7 km/h 6.9 km/h 98 % 0.8 mm
12:07 9.7 °C 9.4 °C 990.1 hPa WSW 5.8 km/h 7.6 km/h 98 % 0.8 mm
12:12 9.7 °C 9.4 °C 990.1 hPa Calm   7.6 km/h 98 % 0.8 mm
12:17 9.7 °C 9.4 °C 990.1 hPa WSW 5.8 km/h 9.3 km/h 98 % 0.8 mm
12:22 9.7 °C 9.4 °C 990.1 hPa WSW 9.0 km/h 11.9 km/h 98 % 0.3 mm
12:27 9.6 °C 9.2 °C 990.1 hPa WSW 15.8 km/h 16.9 km/h 97 % 0.3 mm
12:32 9.4 °C 8.9 °C 990.1 hPa WNW 8.7 km/h 16.9 km/h 97 % 0.3 mm
12:37 9.4 °C 8.9 °C 990.1 hPa Calm   15.8 km/h 97 % 0.3 mm
12:42 9.4 °C 8.9 °C 990.1 hPa Calm   8.7 km/h 97 % 0.3 mm
12:52 9.6 °C 9.2 °C 990.1 hPa North 4.7 km/h 6.4 km/h 97 % 0.3 mm
12:57 9.5 °C 9.1 °C 990.1 hPa Calm   5.5 km/h 97 % 0.3 mm
13:02 9.4 °C 8.9 °C 990.1 hPa Calm   5.0 km/h 97 % 0.3 mm
13:07 9.4 °C 8.9 °C 990.1 hPa Calm   3.5 km/h 97 % 0.3 mm
13:12 9.4 °C 8.9 °C 990.1 hPa Calm   6.1 km/h 97 % 0.3 mm
13:17 9.3 °C 8.8 °C 990.1 hPa Calm   6.1 km/h 97 % 0.3 mm
13:22 9.3 °C 8.8 °C 990.1 hPa NNW 4.3 km/h 6.9 km/h 97 % 0.3 mm
13:27 9.4 °C 8.9 °C 990.1 hPa West 2.6 km/h 6.9 km/h 97 % 0.3 mm
13:32 9.4 °C 8.9 °C 990.1 hPa Calm   6.1 km/h 97 % 0.5 mm
13:37 9.5 °C 9.1 °C 990.1 hPa NW 5.5 km/h 9.0 km/h 97 % 0.5 mm
13:42 9.7 °C 9.2 °C 990.1 hPa West 7.9 km/h 9.0 km/h 97 % 0.5 mm
13:47 9.7 °C 9.2 °C 990.1 hPa West 6.4 km/h 9.0 km/h 97 % 0.3 mm
13:52 9.6 °C 9.2 °C 990.1 hPa WNW 5.0 km/h 9.0 km/h 97 % 0.3 mm
13:57 9.5 °C 9.1 °C 990.1 hPa West 7.9 km/h 9.0 km/h 97 % 0.3 mm
14:02 9.4 °C 8.9 °C 990.1 hPa West 6.4 km/h 12.2 km/h 97 % 0.3 mm
14:07 9.2 °C 8.8 °C 991.1 hPa West 9.3 km/h 12.2 km/h 97 % 0.3 mm
14:12 9.1 °C 8.7 °C 991.1 hPa West 9.7 km/h 11.9 km/h 97 % 0.3 mm
14:17 9.1 °C 8.7 °C 991.1 hPa WNW 5.0 km/h 12.6 km/h 97 % 0.3 mm
14:22 9.2 °C 8.8 °C 990.1 hPa WNW 5.5 km/h 12.6 km/h 97 % 0.5 mm
14:27 9.3 °C 8.8 °C 990.1 hPa WSW 5.8 km/h 11.9 km/h 97 % 0.5 mm
14:32 9.3 °C 8.8 °C 990.1 hPa WNW 9.3 km/h 11.9 km/h 97 % 0.3 mm
14:37 9.3 °C 8.8 °C 990.1 hPa West 4.3 km/h 12.2 km/h 97 % 0.3 mm
14:42 9.3 °C 8.8 °C 990.1 hPa West 5.5 km/h 12.2 km/h 97 % 0.3 mm
14:47 9.2 °C 8.8 °C 990.1 hPa West 3.2 km/h 9.0 km/h 97 % 0.5 mm
14:52 9.1 °C 8.7 °C 990.1 hPa Calm   9.7 km/h 97 % 0.5 mm
14:57 9.1 °C 8.7 °C 990.1 hPa Calm   9.7 km/h 97 % 0.5 mm
15:02 9.1 °C 8.7 °C 990.1 hPa NW 6.9 km/h 10.1 km/h 97 % 0.5 mm
15:07 9.0 °C 8.6 °C 990.1 hPa WNW 4.7 km/h 10.1 km/h 97 % 0.5 mm
15:12 9.0 °C 8.6 °C 990.1 hPa WSW 5.8 km/h 10.5 km/h 97 % 0.5 mm
15:17 8.9 °C 8.4 °C 990.1 hPa West 7.9 km/h 11.1 km/h 97 % 0.5 mm
15:22 8.9 °C 8.4 °C 991.1 hPa West 4.0 km/h 11.1 km/h 97 % 0.3 mm
15:27 8.7 °C 8.3 °C 991.1 hPa WSW 7.6 km/h 15.8 km/h 97 % 0.3 mm
15:32 8.5 °C 8.1 °C 991.1 hPa West 6.1 km/h 15.8 km/h 97 % 0.8 mm
15:37 8.4 °C 8.0 °C 991.1 hPa West 4.7 km/h 9.3 km/h 97 % 1.0 mm
15:42 8.3 °C 7.9 °C 991.1 hPa WNW 2.1 km/h 7.9 km/h 97 % 1.0 mm
15:47 8.3 °C 7.9 °C 991.1 hPa West 5.5 km/h 9.0 km/h 97 % 1.0 mm
15:52 8.3 °C 7.9 °C 991.1 hPa Calm   9.0 km/h 97 % 1.0 mm
15:57 8.3 °C 7.9 °C 991.1 hPa Calm   7.6 km/h 97 % 1.3 mm
16:02 8.3 °C 7.9 °C 991.1 hPa Calm   7.6 km/h 97 % 1.3 mm
16:07 8.4 °C 8.0 °C 991.1 hPa Calm   7.6 km/h 97 % 1.3 mm
16:12 8.5 °C 8.1 °C 991.1 hPa West 2.6 km/h 6.9 km/h 97 % 1.3 mm
16:17 8.4 °C 8.0 °C 991.1 hPa NNW 3.5 km/h 5.0 km/h 97 % 1.3 mm
16:22 8.3 °C 7.9 °C 991.1 hPa West 4.7 km/h 6.1 km/h 97 % 1.5 mm
16:27 8.2 °C 7.8 °C 991.1 hPa WSW 4.7 km/h 10.5 km/h 97 % 1.5 mm
16:32 8.1 °C 7.7 °C 991.1 hPa West 10.5 km/h 10.5 km/h 97 % 1.0 mm
16:37 8.1 °C 7.7 °C 991.1 hPa WSW 6.9 km/h 10.5 km/h 97 % 0.8 mm
16:42 8.1 °C 7.7 °C 991.1 hPa WSW 4.3 km/h 10.5 km/h 97 % 1.0 mm
16:47 8.1 °C 7.6 °C 991.1 hPa Calm   9.0 km/h 97 % 0.8 mm
16:52 7.9 °C 7.5 °C 991.1 hPa Calm   5.5 km/h 97 % 0.8 mm
16:57 8.1 °C 7.6 °C 991.1 hPa West 3.2 km/h 3.2 km/h 97 % 0.5 mm
17:02 8.1 °C 7.6 °C 991.1 hPa Calm   5.8 km/h 97 % 0.5 mm
17:07 8.1 °C 7.6 °C 992.1 hPa WSW 3.2 km/h 5.8 km/h 97 % 0.5 mm
17:12 8.1 °C 7.6 °C 992.1 hPa Calm   3.2 km/h 97 % 0.5 mm
17:17 8.1 °C 7.6 °C 992.1 hPa Calm   3.2 km/h 97 % 0.5 mm
17:22 8.1 °C 7.6 °C 991.1 hPa Calm   3.2 km/h 97 % 0.3 mm
17:27 7.9 °C 7.5 °C 991.1 hPa Calm     97 % 0.3 mm
17:32 8.1 °C 7.6 °C 991.1 hPa Calm     97 % 0.3 mm
17:37 8.1 °C 7.6 °C 990.1 hPa Calm     97 % 0.3 mm
17:42 8.1 °C 7.6 °C 990.1 hPa Calm     97 % 0.0 mm
17:47 8.1 °C 7.6 °C 990.1 hPa Calm     97 % 0.0 mm
17:52 8.1 °C 7.6 °C 991.1 hPa Calm     97 % 0.0 mm
17:57 8.1 °C 7.6 °C 991.1 hPa Calm     97 % 0.0 mm
18:02 8.1 °C 7.6 °C 991.1 hPa Calm     97 % 0.0 mm
18:07 8.1 °C 7.6 °C 991.1 hPa Calm     97 % 0.0 mm
18:12 7.9 °C 7.5 °C 991.1 hPa Calm     97 % 0.0 mm
18:18 7.8 °C 7.4 °C 991.1 hPa Calm     97 % 0.0 mm
18:23 7.8 °C 7.4 °C 991.1 hPa Calm     97 % 0.0 mm
18:28 7.7 °C 7.3 °C 991.1 hPa SSW 6.4 km/h 6.4 km/h 97 % 0.0 mm
18:33 7.7 °C 7.3 °C 991.1 hPa Calm   6.4 km/h 97 % 0.0 mm
18:38 7.7 °C 7.3 °C 992.1 hPa SSW 5.0 km/h 6.4 km/h 97 % 0.0 mm
18:43 7.7 °C 7.3 °C 992.1 hPa SW 6.1 km/h 7.6 km/h 97 % 0.0 mm
18:48 7.7 °C 7.3 °C 992.1 hPa SW 4.7 km/h 9.7 km/h 97 % 0.0 mm
18:53 7.7 °C 7.4 °C 992.1 hPa SSW 6.4 km/h 9.7 km/h 98 % 0.0 mm
18:58 7.7 °C 7.4 °C 992.1 hPa SSW 6.9 km/h 10.1 km/h 98 % 0.0 mm
19:03 7.7 °C 7.4 °C 992.1 hPa SW 6.1 km/h 10.1 km/h 98 % 0.0 mm
19:08 7.7 °C 7.4 °C 992.1 hPa SSW 5.8 km/h 10.1 km/h 98 % 0.0 mm
19:13 7.7 °C 7.4 °C 992.1 hPa WSW 9.7 km/h 9.7 km/h 98 % 0.0 mm
19:18 7.7 °C 7.4 °C 992.1 hPa SW 5.8 km/h 9.7 km/h 98 % 0.0 mm
19:23 7.7 °C 7.4 °C 993.1 hPa SSW 7.9 km/h 9.3 km/h 98 % 0.0 mm
19:28 7.7 °C 7.3 °C 993.1 hPa SW 9.3 km/h 9.3 km/h 98 % 0.0 mm
19:33 7.7 °C 7.4 °C 993.1 hPa SW 6.4 km/h 10.5 km/h 98 % 0.0 mm
19:38 7.7 °C 7.4 °C 993.1 hPa WSW 8.7 km/h 12.6 km/h 98 % 0.0 mm
19:43 7.7 °C 7.4 °C 993.1 hPa SW 9.3 km/h 13.0 km/h 98 % 0.0 mm
19:48 7.7 °C 7.4 °C 993.1 hPa SSW 9.3 km/h 13.0 km/h 98 % 0.0 mm
19:53 7.7 °C 7.4 °C 993.1 hPa WSW 7.9 km/h 11.6 km/h 98 % 0.0 mm
19:58 7.7 °C 7.4 °C 993.1 hPa WSW 9.0 km/h 10.1 km/h 98 % 0.0 mm
20:03 7.7 °C 7.3 °C 993.1 hPa SW 6.1 km/h 9.7 km/h 98 % 0.0 mm
20:08 7.7 °C 7.3 °C 992.1 hPa SW 6.1 km/h 9.3 km/h 98 % 0.0 mm
20:13 7.7 °C 7.3 °C 992.1 hPa SW 5.8 km/h 9.3 km/h 98 % 0.0 mm
20:18 7.6 °C 7.3 °C 992.1 hPa SSW 6.9 km/h 9.3 km/h 98 % 0.0 mm
20:23 7.6 °C 7.3 °C 993.1 hPa SW 5.0 km/h 8.7 km/h 98 % 0.0 mm
20:28 7.6 °C 7.3 °C 993.1 hPa SW 7.9 km/h 10.5 km/h 98 % 0.0 mm
20:33 7.4 °C 7.2 °C 993.1 hPa SW 6.4 km/h 10.5 km/h 98 % 0.0 mm
20:38 7.4 °C 7.2 °C 993.1 hPa SW 6.9 km/h 9.0 km/h 98 % 0.0 mm
20:43 7.4 °C 7.2 °C 993.1 hPa SW 5.0 km/h 9.7 km/h 98 % 0.0 mm
20:48 7.3 °C 7.1 °C 993.1 hPa SSW 5.8 km/h 9.7 km/h 98 % 0.0 mm
20:53 7.3 °C 7.1 °C 993.1 hPa South 4.0 km/h 6.9 km/h 98 % 0.0 mm
20:58 7.3 °C 6.9 °C 993.1 hPa South 5.8 km/h 6.4 km/h 98 % 0.0 mm
21:03 7.2 °C 6.7 °C 993.1 hPa SSW 4.7 km/h 6.9 km/h 97 % 0.0 mm
21:08 7.2 °C 6.7 °C 993.1 hPa South 5.8 km/h 7.9 km/h 97 % 0.0 mm
21:13 7.1 °C 6.6 °C 993.1 hPa SSW 6.1 km/h 7.9 km/h 97 % 0.0 mm
21:18 7.1 °C 6.6 °C 993.1 hPa South 5.0 km/h 10.5 km/h 97 % 0.0 mm
21:23 6.9 °C 6.5 °C 993.1 hPa SSW 4.7 km/h 10.5 km/h 97 % 0.0 mm
21:28 6.9 °C 6.5 °C 993.1 hPa South 4.7 km/h 9.7 km/h 97 % 0.0 mm
21:33 6.8 °C 6.4 °C 993.1 hPa SSW 7.9 km/h 9.7 km/h 97 % 0.0 mm
21:38 6.8 °C 6.4 °C 993.1 hPa SSW 6.1 km/h 11.6 km/h 97 % 0.0 mm
21:43 6.8 °C 6.4 °C 993.1 hPa SSW 9.7 km/h 12.2 km/h 97 % 0.0 mm
21:48 6.8 °C 6.4 °C 993.1 hPa SSW 10.1 km/h 14.0 km/h 97 % 0.0 mm
21:53 6.8 °C 6.4 °C 993.1 hPa South 6.9 km/h 14.0 km/h 97 % 0.0 mm
21:58 6.8 °C 6.4 °C 993.1 hPa SSW 7.9 km/h 17.2 km/h 97 % 0.0 mm
22:03 6.8 °C 6.4 °C 993.1 hPa SSW 12.6 km/h 17.2 km/h 97 % 0.0 mm
22:08 6.8 °C 6.4 °C 993.1 hPa SSW 9.7 km/h 15.8 km/h 97 % 0.0 mm
22:13 6.8 °C 6.4 °C 993.1 hPa South 7.9 km/h 15.8 km/h 97 % 0.0 mm
22:18 6.8 °C 6.4 °C 993.1 hPa SSW 12.6 km/h 20.1 km/h 97 % 0.0 mm
22:23 6.8 °C 6.4 °C 992.1 hPa South 5.8 km/h 20.1 km/h 97 % 0.0 mm
22:28 6.8 °C 6.4 °C 992.1 hPa SSW 12.6 km/h 16.9 km/h 97 % 0.0 mm
22:33 6.8 °C 6.4 °C 992.1 hPa SSW 12.6 km/h 16.9 km/h 97 % 0.0 mm
22:38 6.8 °C 6.4 °C 993.1 hPa SW 9.0 km/h 14.0 km/h 97 % 0.0 mm
22:43 6.8 °C 6.3 °C 993.1 hPa SSW 9.0 km/h 17.2 km/h 96 % 0.0 mm
22:48 6.8 °C 6.3 °C 993.1 hPa SW 9.7 km/h 17.2 km/h 96 % 0.0 mm
22:53 6.8 °C 6.3 °C 994.1 hPa SW 13.0 km/h 17.7 km/h 96 % 0.0 mm
22:58 6.8 °C 6.3 °C 994.1 hPa WSW 13.7 km/h 21.9 km/h 96 % 0.0 mm
23:03 6.9 °C 6.4 °C 994.1 hPa SW 18.0 km/h 21.9 km/h 96 % 0.0 mm
23:08 6.9 °C 6.4 °C 994.1 hPa SW 16.9 km/h 24.5 km/h 96 % 0.0 mm
23:13 6.9 °C 6.2 °C 994.1 hPa SW 15.8 km/h 24.5 km/h 95 % 0.0 mm
23:18 6.9 °C 6.2 °C 994.1 hPa WSW 11.9 km/h 20.1 km/h 95 % 0.0 mm
23:23 7.1 °C 6.3 °C 994.1 hPa SW 14.0 km/h 19.8 km/h 95 % 0.0 mm
23:28 7.1 °C 6.2 °C 994.1 hPa SSW 9.7 km/h 19.1 km/h 94 % 0.0 mm
23:33 7.2 °C 6.3 °C 994.1 hPa SSW 12.2 km/h 19.8 km/h 94 % 0.0 mm
23:38 7.3 °C 6.3 °C 994.1 hPa SW 19.8 km/h 24.8 km/h 94 % 0.0 mm
23:43 7.3 °C 6.3 °C 994.1 hPa SSW 20.6 km/h 24.8 km/h 94 % 0.0 mm
23:48 7.3 °C 6.3 °C 994.1 hPa SW 10.5 km/h 21.2 km/h 94 % 0.0 mm
23:53 7.3 °C 6.2 °C 994.1 hPa SW 15.4 km/h 20.6 km/h 93 % 0.0 mm
23:58 7.3 °C 6.3 °C 994.1 hPa SW 12.6 km/h 19.1 km/h 93 % 0.0 mm
Le Gheer Warneton
Courtoisie de Weather Underground - 2.25 mb

Mise a jour : 16-12-17 12:15:12
Généré par Cumulus 1.9.4 (1099)